createdAt,value
2022-12-19T00:00:19.986Z,63.15
2022-12-19T00:02:21.671Z,58.75
2022-12-19T00:04:23.276Z,62.75
2022-12-19T00:06:26.211Z,75.82
2022-12-19T00:08:27.821Z,57.10
2022-12-19T00:10:29.379Z,74.22
2022-12-19T00:12:31.030Z,72.20
2022-12-19T00:14:32.679Z,56.00
2022-12-19T00:16:35.783Z,60.20
2022-12-19T00:18:39.034Z,53.08
2022-12-19T00:20:40.818Z,54.22
2022-12-19T00:22:42.473Z,54.47
2022-12-19T00:24:44.033Z,51.97
2022-12-19T00:26:45.548Z,54.95
2022-12-19T00:28:49.230Z,45.85
2022-12-19T00:30:50.925Z,49.53
2022-12-19T00:32:56.522Z,55.78
2022-12-19T00:34:58.060Z,56.75
2022-12-19T00:37:02.710Z,50.03
2022-12-19T00:39:07.911Z,49.10
2022-12-19T00:41:11.683Z,52.58
2022-12-19T00:43:13.260Z,50.67
2022-12-19T00:45:14.840Z,54.13
2022-12-19T00:47:16.397Z,50.05
2022-12-19T00:49:19.586Z,48.67
2022-12-19T00:51:23.121Z,47.25
2022-12-19T00:53:24.607Z,50.95
2022-12-19T00:55:26.149Z,45.58
2022-12-19T00:57:27.718Z,49.22
2022-12-19T00:59:29.418Z,48.92
2022-12-19T01:01:33.137Z,63.10
2022-12-19T01:03:35.228Z,48.80
2022-12-19T01:05:38.262Z,49.60
2022-12-19T01:07:43.610Z,52.10
2022-12-19T01:09:45.347Z,52.13
2022-12-19T01:11:48.139Z,54.85
2022-12-19T01:13:49.714Z,48.15
2022-12-19T01:15:51.444Z,56.15
2022-12-19T01:17:53.095Z,47.50
2022-12-19T01:19:54.705Z,54.50
2022-12-19T01:21:57.848Z,52.08
2022-12-19T01:23:59.443Z,52.28
2022-12-19T01:26:01.005Z,47.88
2022-12-19T01:28:03.673Z,56.35
2022-12-19T01:30:06.858Z,56.55
2022-12-19T01:32:09.739Z,52.67
2022-12-19T01:34:11.327Z,50.53
2022-12-19T01:36:12.951Z,53.03
2022-12-19T01:38:17.403Z,51.42
2022-12-19T01:40:19.695Z,54.85
2022-12-19T01:42:23.444Z,64.10
2022-12-19T01:44:26.686Z,54.45
2022-12-19T01:46:33.574Z,50.22
2022-12-19T01:48:38.574Z,50.45
2022-12-19T01:50:53.586Z,46.38
2022-12-19T01:53:03.782Z,55.90
2022-12-19T01:55:08.086Z,52.85
2022-12-19T01:57:13.960Z,59.05
2022-12-19T01:59:19.571Z,61.00
2022-12-19T02:01:21.499Z,56.08
2022-12-19T02:03:27.004Z,52.03
2022-12-19T02:05:28.912Z,47.70
2022-12-19T02:07:31.634Z,52.42
2022-12-19T02:09:34.379Z,51.17
2022-12-19T02:11:37.448Z,51.60
2022-12-19T02:13:39.748Z,52.03
2022-12-19T02:15:52.389Z,50.80
2022-12-19T02:18:06.607Z,56.60
2022-12-19T02:20:40.804Z,48.75
2022-12-19T02:23:00.332Z,48.50
2022-12-19T02:25:46.258Z,44.33
2022-12-19T02:28:24.010Z,48.97
2022-12-19T02:30:48.934Z,44.45
2022-12-19T02:32:58.738Z,54.30
2022-12-19T02:35:07.602Z,46.53
2022-12-19T02:37:13.088Z,50.05
2022-12-19T02:39:18.495Z,47.47
2022-12-19T02:41:24.614Z,44.17
2022-12-19T02:43:30.960Z,44.95
2022-12-19T02:45:35.886Z,41.47
2022-12-19T02:47:39.850Z,43.45
2022-12-19T02:49:41.411Z,43.25
2022-12-19T02:51:42.994Z,52.30
2022-12-19T02:53:44.517Z,53.83
2022-12-19T02:55:52.448Z,54.63
2022-12-19T02:58:10.760Z,53.45
2022-12-19T03:00:17.863Z,52.25
2022-12-19T03:02:30.103Z,50.03
2022-12-19T03:04:45.055Z,43.40
2022-12-19T03:06:52.909Z,48.78
2022-12-19T03:09:02.043Z,49.28
2022-12-19T03:11:06.507Z,48.85
2022-12-19T03:13:11.736Z,64.28
2022-12-19T03:15:14.943Z,55.35
2022-12-19T03:17:19.743Z,46.70
2022-12-19T03:19:22.056Z,52.50
2022-12-19T03:21:31.671Z,55.72
2022-12-19T03:23:33.749Z,54.20
2022-12-19T03:25:35.859Z,54.00
2022-12-19T03:27:39.281Z,51.08
2022-12-19T03:29:47.855Z,51.58
2022-12-19T03:31:50.129Z,47.63
2022-12-19T03:33:55.973Z,53.75
2022-12-19T03:35:59.704Z,54.78
2022-12-19T03:38:04.484Z,52.03
2022-12-19T03:40:10.741Z,54.67
2022-12-19T03:42:15.312Z,46.92
2022-12-19T03:44:18.592Z,47.00
2022-12-19T03:46:24.802Z,50.47
2022-12-19T03:48:31.837Z,46.08
2022-12-19T03:50:43.088Z,54.72
2022-12-19T03:52:52.487Z,49.08
2022-12-19T03:55:04.221Z,49.70
2022-12-19T03:57:09.727Z,44.22
2022-12-19T03:59:16.333Z,48.50
2022-12-19T04:01:18.428Z,48.47
2022-12-19T04:03:21.537Z,42.72
2022-12-19T04:05:26.054Z,43.05
2022-12-19T04:07:27.939Z,44.90
2022-12-19T04:09:30.465Z,47.08
2022-12-19T04:11:40.856Z,43.35
2022-12-19T04:13:47.448Z,46.58
2022-12-19T04:15:54.844Z,46.13
2022-12-19T04:17:58.816Z,42.45
2022-12-19T04:20:03.978Z,48.17
2022-12-19T04:22:10.896Z,43.60
2022-12-19T04:24:15.943Z,44.47
2022-12-19T04:26:19.980Z,44.38
2022-12-19T04:28:26.579Z,50.08
2022-12-19T04:30:28.201Z,49.47
2022-12-19T04:32:34.261Z,40.28
2022-12-19T04:34:38.931Z,39.90
2022-12-19T04:36:44.177Z,41.05
2022-12-19T04:38:45.748Z,47.25
2022-12-19T04:40:47.266Z,40.35
2022-12-19T04:42:48.794Z,53.80
2022-12-19T04:44:51.660Z,45.97
2022-12-19T04:46:53.351Z,49.15
2022-12-19T04:48:54.968Z,41.40
2022-12-19T04:50:56.784Z,46.00
2022-12-19T04:52:58.320Z,43.25
2022-12-19T04:54:59.835Z,53.25
2022-12-19T04:57:01.388Z,42.67
2022-12-19T04:59:02.939Z,43.92
2022-12-19T05:01:07.994Z,43.33
2022-12-19T05:03:09.540Z,38.47
2022-12-19T05:05:11.278Z,38.03
2022-12-19T05:07:13.558Z,46.13
2022-12-19T05:09:15.131Z,42.72
2022-12-19T05:11:19.709Z,38.38
2022-12-19T05:13:21.692Z,40.72
2022-12-19T05:15:23.223Z,45.45
2022-12-19T05:17:26.099Z,43.40
2022-12-19T05:19:27.645Z,41.50
2022-12-19T05:21:29.183Z,47.10
2022-12-19T05:23:30.969Z,44.53
2022-12-19T05:25:35.610Z,41.25
2022-12-19T05:27:37.143Z,44.15
2022-12-19T05:29:38.722Z,41.42
2022-12-19T05:31:40.515Z,44.22
2022-12-19T05:33:44.082Z,43.70
2022-12-19T05:35:45.640Z,38.30
2022-12-19T05:37:47.344Z,41.72
2022-12-19T05:39:48.943Z,45.15
2022-12-19T05:41:50.546Z,36.63
2022-12-19T05:43:54.413Z,36.97
2022-12-19T05:45:55.918Z,39.53
2022-12-19T05:48:01.210Z,41.38
2022-12-19T05:50:05.129Z,40.20
2022-12-19T05:52:06.772Z,37.95
2022-12-19T05:54:08.550Z,39.70
2022-12-19T05:56:12.664Z,38.45
2022-12-19T05:58:14.211Z,35.30
2022-12-19T06:00:16.706Z,38.78
2022-12-19T06:02:18.336Z,34.47
2022-12-19T06:04:19.862Z,37.38
2022-12-19T06:06:26.124Z,34.63
2022-12-19T06:08:27.702Z,38.60
2022-12-19T06:10:29.274Z,39.42
2022-12-19T06:12:30.811Z,39.47
2022-12-19T06:14:32.383Z,35.95
2022-12-19T06:16:34.022Z,39.42
2022-12-19T06:18:39.395Z,41.53
2022-12-19T06:20:43.144Z,40.53
2022-12-19T06:22:46.093Z,35.50
2022-12-19T06:24:47.634Z,34.83
2022-12-19T06:26:49.186Z,37.40
2022-12-19T06:28:52.321Z,33.15
2022-12-19T06:30:56.069Z,34.35
2022-12-19T06:32:57.639Z,32.65
2022-12-19T06:35:06.385Z,34.53
2022-12-19T06:37:08.526Z,34.67
2022-12-19T06:39:14.047Z,34.72
2022-12-19T06:41:16.747Z,37.58
2022-12-19T06:43:18.292Z,37.60
2022-12-19T06:45:19.824Z,38.25
2022-12-19T06:47:22.240Z,31.90
2022-12-19T06:49:23.800Z,38.75
2022-12-19T06:51:25.468Z,37.70
2022-12-19T06:53:27.177Z,35.67
2022-12-19T06:55:30.154Z,34.42
2022-12-19T06:57:31.698Z,39.40
2022-12-19T06:59:33.711Z,35.50
2022-12-19T07:01:49.752Z,36.28
2022-12-19T07:03:51.547Z,34.72
2022-12-19T07:05:53.427Z,34.67
2022-12-19T07:07:57.937Z,35.42
2022-12-19T07:09:59.733Z,32.17
2022-12-19T07:12:03.012Z,36.05
2022-12-19T07:14:04.561Z,36.03
2022-12-19T07:16:08.887Z,36.30
2022-12-19T07:18:10.870Z,39.72
2022-12-19T07:20:13.474Z,40.50
2022-12-19T07:22:15.265Z,31.35
2022-12-19T07:24:16.997Z,36.05
2022-12-19T07:26:18.563Z,44.90
2022-12-19T07:28:21.567Z,42.20
2022-12-19T07:30:23.117Z,38.00
2022-12-19T07:32:24.698Z,33.63
2022-12-19T07:34:26.303Z,33.15
2022-12-19T07:36:27.888Z,36.33
2022-12-19T07:38:29.429Z,33.88
2022-12-19T07:40:34.206Z,39.65
2022-12-19T07:42:35.776Z,32.92
2022-12-19T07:44:38.733Z,36.42
2022-12-19T07:46:40.357Z,34.13
2022-12-19T07:48:41.920Z,39.70
2022-12-19T07:50:43.501Z,36.95
2022-12-19T07:52:45.098Z,36.67
2022-12-19T07:54:47.015Z,37.53
2022-12-19T07:56:48.526Z,37.50
2022-12-19T07:58:50.412Z,38.60
2022-12-19T08:00:57.785Z,34.25
2022-12-19T08:02:59.447Z,42.75
2022-12-19T08:05:04.698Z,37.10
2022-12-19T08:07:06.243Z,36.15
2022-12-19T08:09:08.061Z,37.30
2022-12-19T08:11:11.711Z,35.47
2022-12-19T08:13:13.307Z,37.30
2022-12-19T08:15:15.095Z,38.10
2022-12-19T08:17:20.644Z,34.42
2022-12-19T08:19:27.257Z,34.45
2022-12-19T08:21:29.316Z,37.55
2022-12-19T08:23:30.894Z,32.38
2022-12-19T08:25:40.620Z,40.03
2022-12-19T08:27:42.210Z,34.88
2022-12-19T08:29:43.984Z,33.35
2022-12-19T08:31:45.573Z,36.47
2022-12-19T08:33:48.467Z,32.80
2022-12-19T08:35:50.022Z,35.17
2022-12-19T08:38:06.530Z,33.67
2022-12-19T08:40:09.016Z,39.83
2022-12-19T08:42:10.614Z,34.28
2022-12-19T08:44:12.286Z,34.75
2022-12-19T08:46:13.914Z,32.55
2022-12-19T08:48:15.704Z,34.95
2022-12-19T08:50:18.689Z,32.35
2022-12-19T08:52:20.251Z,32.55
2022-12-19T08:54:21.914Z,35.80
2022-12-19T08:56:23.493Z,35.17
2022-12-19T08:58:26.468Z,38.53
2022-12-19T09:00:29.091Z,34.00
2022-12-19T09:02:30.802Z,38.22
2022-12-19T09:05:21.821Z,34.63
2022-12-19T09:06:56.117Z,33.03
2022-12-19T09:09:00.329Z,35.65
2022-12-19T09:11:04.362Z,33.53
2022-12-19T09:13:06.416Z,33.10
2022-12-19T09:15:08.524Z,30.63
2022-12-19T09:17:10.166Z,34.35
2022-12-19T09:19:11.809Z,33.95
2022-12-19T09:21:16.613Z,35.22
2022-12-19T09:23:19.743Z,30.73
2022-12-19T09:25:21.564Z,31.48
2022-12-19T09:27:23.691Z,29.50
2022-12-19T09:29:25.368Z,30.65
2022-12-19T09:31:27.094Z,35.22
2022-12-19T09:33:29.494Z,43.25
2022-12-19T09:35:31.102Z,32.95
2022-12-19T09:37:32.895Z,29.88
2022-12-19T09:39:36.355Z,36.53
2022-12-19T09:41:55.629Z,32.05
2022-12-19T09:44:09.430Z,32.80
2022-12-19T09:46:17.363Z,32.60
2022-12-19T09:48:24.677Z,29.38
2022-12-19T09:50:33.326Z,33.53
2022-12-19T09:52:39.967Z,37.22
2022-12-19T09:54:47.459Z,33.22
2022-12-19T09:56:52.821Z,30.20
2022-12-19T09:59:14.364Z,32.95
2022-12-19T10:01:20.298Z,35.45
2022-12-19T10:03:28.189Z,28.33
2022-12-19T10:07:09.381Z,37.88
2022-12-19T10:08:08.863Z,29.85
2022-12-19T10:12:37.282Z,33.72
2022-12-19T10:12:59.579Z,32.28
2022-12-19T10:15:06.344Z,32.70
2022-12-19T10:17:24.762Z,35.85
2022-12-19T10:19:36.706Z,31.60
2022-12-19T10:24:26.692Z,34.35
2022-12-19T10:26:42.606Z,34.47
2022-12-19T10:28:56.577Z,38.10
2022-12-19T10:31:17.045Z,34.83
2022-12-19T10:33:28.827Z,34.35
2022-12-19T10:35:35.871Z,33.22
2022-12-19T10:37:49.138Z,39.70
2022-12-19T10:39:59.515Z,34.30
2022-12-19T10:42:12.830Z,33.95
2022-12-19T10:44:14.463Z,31.10
2022-12-19T10:46:21.282Z,34.30
2022-12-19T10:48:30.543Z,31.17
2022-12-19T10:50:32.963Z,32.17
2022-12-19T10:52:53.374Z,30.35
2022-12-19T10:54:54.923Z,31.30
2022-12-19T10:57:23.142Z,29.25
2022-12-19T10:59:24.769Z,33.17
2022-12-19T11:01:27.999Z,34.22
2022-12-19T11:03:29.899Z,32.00
2022-12-19T11:05:41.933Z,35.83
2022-12-19T11:07:59.712Z,33.47
2022-12-19T11:10:42.632Z,34.20
2022-12-19T11:16:53.648Z,34.83
2022-12-19T11:19:16.732Z,33.22
2022-12-19T11:25:20.259Z,35.25
2022-12-19T11:29:27.192Z,27.98
2022-12-19T11:29:39.998Z,32.78
2022-12-19T11:30:09.511Z,29.92
2022-12-19T11:30:48.002Z,29.52
2022-12-19T11:32:39.634Z,29.48
2022-12-19T11:34:49.717Z,30.50
2022-12-19T11:36:55.677Z,28.85
2022-12-19T11:38:57.389Z,33.13
2022-12-19T11:41:04.956Z,32.13
2022-12-19T11:45:48.103Z,33.30
2022-12-19T11:47:55.385Z,31.88
2022-12-19T11:50:02.692Z,32.53
2022-12-19T11:52:36.812Z,29.50
2022-12-19T11:54:49.976Z,32.45
2022-12-19T11:56:53.172Z,29.50
2022-12-19T11:59:00.046Z,29.02
2022-12-19T12:01:12.410Z,31.60
2022-12-19T12:03:55.954Z,30.90
2022-12-19T12:06:11.780Z,30.40
2022-12-19T12:09:39.808Z,30.25
2022-12-19T12:14:34.626Z,30.33
2022-12-19T12:23:31.865Z,31.30
2022-12-19T12:24:56.029Z,32.25
2022-12-19T12:31:04.009Z,27.50
2022-12-19T12:31:10.258Z,30.77
2022-12-19T12:31:49.077Z,27.65
2022-12-19T12:31:52.227Z,29.83
2022-12-19T12:32:06.513Z,31.48
2022-12-19T12:35:56.307Z,35.38
2022-12-19T12:39:44.081Z,26.95
2022-12-19T12:42:01.533Z,34.53
2022-12-19T12:44:08.467Z,26.15
2022-12-19T12:46:15.748Z,26.73
2022-12-19T12:48:25.119Z,31.75
2022-12-19T12:50:28.321Z,29.20
2022-12-19T12:52:34.021Z,35.47
2022-12-19T12:54:39.132Z,30.30
2022-12-19T12:56:42.086Z,34.25
2022-12-19T12:59:07.411Z,42.25
2022-12-19T13:01:11.750Z,43.70
2022-12-19T13:03:18.186Z,38.47
2022-12-19T13:05:53.405Z,40.45
2022-12-19T13:07:57.400Z,35.67
2022-12-19T13:10:18.687Z,33.25
2022-12-19T13:12:25.956Z,34.10
2022-12-19T13:14:45.865Z,40.13
2022-12-19T13:16:53.402Z,33.50
2022-12-19T13:19:04.442Z,30.17
2022-12-19T13:21:09.418Z,35.72
2022-12-19T13:23:33.399Z,37.83
2022-12-19T13:25:50.819Z,31.15
2022-12-19T13:27:57.555Z,32.45
2022-12-19T13:30:14.645Z,38.25
2022-12-19T13:32:16.708Z,32.28
2022-12-19T13:34:19.117Z,34.97
2022-12-19T13:39:49.477Z,31.70
2022-12-19T13:39:59.033Z,34.28
2022-12-19T13:42:00.709Z,36.72
2022-12-19T13:44:02.309Z,34.33
2022-12-19T13:46:05.979Z,31.67
2022-12-19T13:48:27.737Z,33.85
2022-12-19T13:50:32.918Z,29.17
2022-12-19T13:52:38.580Z,29.65
2022-12-19T13:54:47.382Z,32.30
2022-12-19T13:56:49.004Z,31.33
2022-12-19T13:58:54.696Z,29.38
2022-12-19T14:01:04.265Z,31.23
2022-12-19T14:03:15.304Z,32.45
2022-12-19T14:06:09.671Z,29.10
2022-12-19T14:07:53.042Z,29.27
2022-12-19T14:11:27.843Z,29.48
2022-12-19T14:12:27.797Z,30.25
2022-12-19T14:15:02.111Z,37.08
2022-12-19T14:17:14.140Z,36.38
2022-12-19T14:19:20.967Z,40.97
2022-12-19T14:22:05.735Z,33.13
2022-12-19T14:23:47.461Z,34.00
2022-12-19T14:28:22.205Z,33.58
2022-12-19T14:28:29.232Z,27.20
2022-12-19T14:30:34.959Z,36.05
2022-12-19T14:33:39.754Z,27.85
2022-12-19T14:36:06.196Z,32.58
2022-12-19T14:38:36.093Z,29.70
2022-12-19T14:39:59.294Z,33.08
2022-12-19T14:42:04.915Z,29.95
2022-12-19T14:52:34.686Z,34.28
2022-12-19T14:54:06.516Z,33.42
2022-12-19T14:54:12.864Z,31.27
2022-12-19T14:54:22.848Z,29.38
2022-12-19T14:55:17.221Z,36.35
2022-12-19T14:58:57.164Z,33.17
2022-12-19T15:01:09.265Z,34.95
2022-12-19T15:03:19.164Z,29.42
2022-12-19T15:05:21.458Z,33.65
2022-12-19T15:07:25.659Z,35.97
2022-12-19T15:11:03.605Z,39.40
2022-12-19T15:12:10.004Z,41.30
2022-12-19T15:14:57.439Z,44.72
2022-12-19T15:16:46.652Z,42.50
2022-12-19T15:18:48.404Z,34.38
2022-12-19T15:20:50.961Z,45.92
2022-12-19T15:22:52.847Z,46.13
2022-12-19T15:24:54.373Z,50.65
2022-12-19T15:26:57.251Z,48.25
2022-12-19T15:28:59.280Z,40.30
2022-12-19T15:31:05.505Z,41.30
2022-12-19T15:33:12.786Z,36.65
2022-12-19T15:35:16.398Z,40.85
2022-12-19T15:37:18.167Z,43.35
2022-12-19T15:39:23.596Z,35.10
2022-12-19T15:41:25.291Z,39.10
2022-12-19T15:44:02.381Z,37.72
2022-12-19T15:45:57.450Z,36.95
2022-12-19T15:47:59.418Z,36.08
2022-12-19T15:50:02.073Z,35.95
2022-12-19T15:52:13.923Z,38.47
2022-12-19T15:54:47.147Z,43.38
2022-12-19T15:56:39.535Z,37.97
2022-12-19T15:58:42.559Z,35.13
2022-12-19T16:00:50.512Z,41.58
2022-12-19T16:03:23.206Z,38.72
2022-12-19T16:05:16.919Z,32.78
2022-12-19T16:07:21.045Z,34.60
2022-12-19T16:09:24.752Z,34.50
2022-12-19T16:11:26.379Z,35.75
2022-12-19T16:13:31.024Z,35.30
2022-12-19T16:15:34.891Z,35.80
2022-12-19T16:17:38.178Z,35.53
2022-12-19T16:19:39.769Z,37.50
2022-12-19T16:21:41.320Z,48.55
2022-12-19T16:23:43.001Z,40.97
2022-12-19T16:25:46.777Z,37.30
2022-12-19T16:27:54.164Z,34.53
2022-12-19T16:29:56.383Z,34.70
2022-12-19T16:31:59.497Z,30.75
2022-12-19T16:34:01.102Z,30.65
2022-12-19T16:36:04.655Z,34.50
2022-12-19T16:38:06.586Z,29.50
2022-12-19T16:40:13.870Z,36.33
2022-12-19T16:42:17.440Z,37.00
2022-12-19T16:44:21.476Z,42.72
2022-12-19T16:46:23.645Z,41.38
2022-12-19T16:48:28.593Z,39.97
2022-12-19T16:50:31.128Z,38.33
2022-12-19T16:52:34.984Z,35.25
2022-12-19T16:54:40.573Z,32.88
2022-12-19T16:56:45.980Z,31.67
2022-12-19T16:58:47.559Z,32.38
2022-12-19T17:00:50.183Z,35.25
2022-12-19T17:02:54.145Z,33.20
2022-12-19T17:04:57.220Z,34.85
2022-12-19T17:06:59.856Z,30.02
2022-12-19T17:09:01.397Z,33.05
2022-12-19T17:11:03.364Z,33.05
2022-12-19T17:13:04.978Z,39.03
2022-12-19T17:15:16.716Z,39.15
2022-12-19T17:17:18.349Z,43.08
2022-12-19T17:19:23.187Z,35.22
2022-12-19T17:21:26.112Z,33.67
2022-12-19T17:23:29.594Z,38.63
2022-12-19T17:25:31.173Z,35.13
2022-12-19T17:27:32.701Z,36.92
2022-12-19T17:29:34.224Z,32.92
2022-12-19T17:31:37.047Z,33.92
2022-12-19T17:33:40.400Z,33.85
2022-12-19T17:35:42.904Z,33.65
2022-12-19T17:37:52.634Z,32.33
2022-12-19T17:39:54.209Z,32.30
2022-12-19T17:41:58.750Z,29.52
2022-12-19T17:44:00.359Z,31.55
2022-12-19T17:46:02.169Z,30.42
2022-12-19T17:48:07.479Z,33.15
2022-12-19T17:50:19.804Z,31.40
2022-12-19T17:52:21.346Z,37.60
2022-12-19T17:54:24.254Z,40.67
2022-12-19T17:56:25.810Z,40.05
2022-12-19T17:58:27.422Z,34.72
2022-12-19T18:00:32.154Z,36.53
2022-12-19T18:02:34.185Z,35.85
2022-12-19T18:04:36.115Z,35.40
2022-12-19T18:06:37.795Z,35.25
2022-12-19T18:08:39.372Z,33.63
2022-12-19T18:10:42.272Z,31.08
2022-12-19T18:12:43.829Z,34.40
2022-12-19T18:14:45.421Z,35.67
2022-12-19T18:16:50.135Z,33.55
2022-12-19T18:18:51.802Z,29.83
2022-12-19T18:20:53.848Z,36.35
2022-12-19T18:22:55.848Z,33.03
2022-12-19T18:24:57.600Z,34.15
2022-12-19T18:27:00.507Z,33.90
2022-12-19T18:29:02.081Z,35.05
2022-12-19T18:31:14.805Z,32.60
2022-12-19T18:33:20.587Z,39.67
2022-12-19T18:35:28.453Z,34.50
2022-12-19T18:37:32.926Z,34.50
2022-12-19T18:39:34.508Z,32.58
2022-12-19T18:41:36.357Z,34.92
2022-12-19T18:43:39.239Z,36.00
2022-12-19T18:45:42.929Z,32.42
2022-12-19T18:47:51.308Z,30.98
2022-12-19T18:49:53.171Z,35.03
2022-12-19T18:51:54.711Z,32.47
2022-12-19T18:53:56.269Z,32.05
2022-12-19T18:55:58.043Z,34.58
2022-12-19T18:57:59.663Z,31.25
2022-12-19T19:00:03.337Z,31.83
2022-12-19T19:02:23.616Z,30.45
2022-12-19T19:04:28.725Z,28.02
2022-12-19T19:06:35.775Z,30.08
2022-12-19T19:08:39.288Z,25.92
2022-12-19T19:10:44.865Z,27.50
2022-12-19T19:12:46.564Z,33.65
2022-12-19T19:14:48.066Z,27.05
2022-12-19T19:16:51.611Z,27.75
2022-12-19T19:18:55.927Z,29.35
2022-12-19T19:21:01.184Z,30.58
2022-12-19T19:23:03.656Z,26.73
2022-12-19T19:25:05.994Z,26.48
2022-12-19T19:27:07.547Z,26.95
2022-12-19T19:29:09.104Z,28.48
2022-12-19T19:31:14.289Z,27.50
2022-12-19T19:33:20.810Z,27.85
2022-12-19T19:35:23.197Z,26.88
2022-12-19T19:37:24.752Z,30.90
2022-12-19T19:39:27.404Z,26.20
2022-12-19T19:41:28.962Z,29.02
2022-12-19T19:43:32.865Z,27.10
2022-12-19T19:45:41.186Z,33.17
2022-12-19T19:47:44.647Z,29.52
2022-12-19T19:49:47.600Z,29.17
2022-12-19T19:51:49.341Z,31.92
2022-12-19T19:53:51.076Z,29.55
2022-12-19T19:55:56.252Z,29.77
2022-12-19T19:57:57.801Z,38.83
2022-12-19T19:59:59.581Z,38.80
2022-12-19T20:02:01.318Z,36.75
2022-12-19T20:04:03.331Z,29.50
2022-12-19T20:06:06.788Z,28.80
2022-12-19T20:08:08.370Z,25.67
2022-12-19T20:10:10.916Z,29.70
2022-12-19T20:12:12.500Z,27.75
2022-12-19T20:14:14.011Z,30.35
2022-12-19T20:16:17.821Z,25.95
2022-12-19T20:18:19.521Z,30.50
2022-12-19T20:20:21.058Z,29.10
2022-12-19T20:22:24.179Z,32.40
2022-12-19T20:24:25.864Z,30.63
2022-12-19T20:26:27.566Z,30.83
2022-12-19T20:28:30.138Z,27.20
2022-12-19T20:30:31.894Z,27.55
2022-12-19T20:32:33.514Z,29.70
2022-12-19T20:34:35.084Z,27.42
2022-12-19T20:36:37.109Z,35.38
2022-12-19T20:38:40.322Z,25.05
2022-12-19T20:40:41.905Z,28.20
2022-12-19T20:42:43.553Z,27.15
2022-12-19T20:44:45.180Z,32.03
2022-12-19T20:46:51.222Z,27.83
2022-12-19T20:48:52.915Z,23.08
2022-12-19T20:50:55.980Z,27.02
2022-12-19T20:52:57.589Z,25.70
2022-12-19T20:55:00.583Z,25.65
2022-12-19T20:57:02.138Z,25.23
2022-12-19T20:59:03.821Z,22.38
2022-12-19T21:01:07.433Z,27.30
2022-12-19T21:05:32.919Z,27.77
2022-12-19T21:07:34.462Z,27.00
2022-12-19T21:09:35.994Z,24.13
2022-12-19T21:11:38.845Z,22.88
2022-12-19T21:13:40.464Z,23.92
2022-12-19T21:15:42.400Z,26.40
2022-12-19T21:17:44.585Z,22.27
2022-12-19T21:19:46.157Z,22.45
2022-12-19T21:21:47.713Z,23.10
2022-12-19T21:23:49.927Z,22.73
2022-12-19T21:25:51.578Z,21.70
2022-12-19T21:27:54.453Z,23.35
2022-12-19T21:29:56.104Z,23.23
2022-12-19T21:31:57.674Z,24.55
2022-12-19T21:34:00.959Z,22.33
2022-12-19T21:36:06.970Z,19.70
2022-12-19T21:38:08.520Z,23.70
2022-12-19T21:40:10.863Z,23.08
2022-12-19T21:42:12.441Z,25.15
2022-12-19T21:44:15.356Z,24.23
2022-12-19T21:46:17.407Z,22.10
2022-12-19T21:48:18.956Z,21.25
2022-12-19T21:50:20.592Z,22.73
2022-12-19T21:52:22.175Z,25.35
2022-12-19T21:54:23.802Z,23.52
2022-12-19T21:56:27.193Z,22.33
2022-12-19T21:58:28.732Z,21.80
2022-12-19T22:00:31.622Z,22.23
2022-12-19T22:02:33.334Z,22.65
2022-12-19T22:04:35.075Z,24.48
2022-12-19T22:06:37.809Z,23.13
2022-12-19T22:08:39.472Z,25.40
2022-12-19T22:10:40.972Z,20.27
2022-12-19T22:12:42.520Z,20.42
2022-12-19T22:14:45.235Z,19.55
2022-12-19T22:16:48.391Z,22.05
2022-12-19T22:18:49.981Z,21.40
2022-12-19T22:20:51.523Z,22.55
2022-12-19T22:22:53.008Z,21.33
2022-12-19T22:24:54.520Z,20.92
2022-12-19T22:26:56.447Z,23.77
2022-12-19T22:28:58.615Z,25.10
2022-12-19T22:31:05.147Z,21.70
2022-12-19T22:33:08.072Z,21.77
2022-12-19T22:35:09.756Z,20.55
2022-12-19T22:37:11.367Z,21.90
2022-12-19T22:39:14.424Z,24.98
2022-12-19T22:41:17.282Z,20.58
2022-12-19T22:43:18.850Z,22.42
2022-12-19T22:45:20.441Z,23.30
2022-12-19T22:47:21.971Z,19.75
2022-12-19T22:49:24.931Z,19.00
2022-12-19T22:51:28.173Z,21.60
2022-12-19T22:53:29.793Z,19.40
2022-12-19T22:55:31.351Z,19.52
2022-12-19T22:57:32.949Z,19.77
2022-12-19T22:59:34.665Z,20.75
2022-12-19T23:01:38.246Z,22.17
2022-12-19T23:03:40.160Z,17.55
2022-12-19T23:05:47.043Z,19.77
2022-12-19T23:07:53.156Z,21.20
2022-12-19T23:09:54.738Z,19.92
2022-12-19T23:11:56.650Z,21.80
2022-12-19T23:13:58.837Z,23.23
2022-12-19T23:16:00.633Z,25.95
2022-12-19T23:18:02.222Z,23.02
2022-12-19T23:20:04.033Z,20.77
2022-12-19T23:22:06.998Z,22.58
2022-12-19T23:24:13.000Z,22.08
2022-12-19T23:26:16.593Z,22.42
2022-12-19T23:28:18.319Z,20.10
2022-12-19T23:30:19.909Z,20.15
2022-12-19T23:32:21.575Z,21.30
2022-12-19T23:34:23.296Z,21.35
2022-12-19T23:37:00.362Z,19.98
2022-12-19T23:38:48.295Z,23.38
2022-12-19T23:40:49.929Z,19.67
2022-12-19T23:42:51.684Z,18.27
2022-12-19T23:44:53.280Z,21.45
2022-12-19T23:47:02.285Z,20.67
2022-12-19T23:49:04.858Z,19.15
2022-12-19T23:51:08.818Z,23.33
2022-12-19T23:53:16.468Z,21.67
2022-12-19T23:55:19.393Z,22.92
2022-12-19T23:57:20.959Z,22.33
2022-12-19T23:59:22.569Z,24.55
